Airfield :
LOGIN :

Register | Disclaimer

   EN    FR    IT 

 










Legend :    VFR   Marginal VFR   IFR   Intensive IFR   Very Intensive IFR
Visi :
Ceiling :
>= 8 km
>= 3000ft
5 to 8 km
1000 to 3000 ft
1500m to 5 km
500 to 1000 ft
800 to 1500m
200 to 500 ft
< 800m
< 200 ft
Symbols :   Thunderstorms  Fog  Heavy snow  Heavy precipitations  Wind > 20 kt
SIGMETs :     Misc.  Thunderstorms  Icing  Turbulence  Mountain Waves  Volcanic Ashes







- Airport Elevation : 502 ft
- IATA code : ORK


EICK - Cork

CURRENT METAR :
  • 211300Z 33008KT 290V020 9999 FEW020 SCT130 20/11 Q1017 NOSIG

EXPIRED METARs :
  • 211230Z 31009KT 280V340 9999 FEW020 BKN120 20/11 Q1017 NOSIG
  • 211200Z 34010KT 300V030 9999 FEW020 SCT130 BKN260 20/11 Q1017 NOSIG
  • 211130Z 35008KT 280V060 9999 FEW020 SCT150 19/11 Q1017 NOSIG
  • 211100Z 35008KT 290V050 9999 FEW020 SCT150 18/11 Q1017 NOSIG
  • 211030Z 33011KT 9999 FEW019 SCT150 17/11 Q1017 NOSIG

TAF TAF EICK
Valid from the 21 at 12:00 until the 22 at 12:00 UTC


211100Z 2112/2212 35010KT 9999 SCT020
BECMG 2113/2116 20012KT
BECMG 2119/2122 34012KT
BECMG 2203/2206 33007KT
TEMPO 2203/2209 BKN009
PROB30
TEMPO 2204/2208 3000 BR BKN004
BECMG 2208/2211 VRB03KT
No reported NOTAMs for that airfield.



MET'MAP, your aeronautical weather chart ! - Copyright ORBIFLY December 2007 - Disclaimer

ORBIFLY MET'MAP TEAM :

Programming & Development : Alexandra Zaïnal
Concept & Development : Baudouin d'Aumeries
Co-Development & Prog : Marc-Olivier Méhu
Technical & hardware support : Manuel Goepfert

Contact : metmap@orbifly.com




SOURCES & CREDITS :

   NOAA